sensor_id;sensor_type;location;lat;lon;timestamp;pressure;altitude;pressure_sealevel;temperature;humidity
8398;BME280;4236;54.504;9.588;2022-08-01T00:00:46;101182.81;;;18.65;100.00
8398;BME280;4236;54.504;9.588;2022-08-01T00:03:13;101189.06;;;18.66;100.00
8398;BME280;4236;54.504;9.588;2022-08-01T00:05:42;101186.84;;;18.63;100.00
8398;BME280;4236;54.504;9.588;2022-08-01T00:08:11;101188.34;;;18.59;100.00
8398;BME280;4236;54.504;9.588;2022-08-01T00:10:39;101194.81;;;18.46;100.00
8398;BME280;4236;54.504;9.588;2022-08-01T00:13:06;101193.66;;;18.42;100.00
8398;BME280;4236;54.504;9.588;2022-08-01T00:15:35;101198.34;;;18.35;100.00
8398;BME280;4236;54.504;9.588;2022-08-01T00:18:03;101205.50;;;18.30;100.00
8398;BME280;4236;54.504;9.588;2022-08-01T00:20:31;101195.19;;;18.27;100.00
8398;BME280;4236;54.504;9.588;2022-08-01T00:23:01;101197.06;;;18.26;99.17
8398;BME280;4236;54.504;9.588;2022-08-01T00:25:29;101197.41;;;18.30;98.59
8398;BME280;4236;54.504;9.588;2022-08-01T00:28:00;101192.13;;;18.23;98.83
8398;BME280;4236;54.504;9.588;2022-08-01T00:30:29;101195.09;;;18.21;97.68
8398;BME280;4236;54.504;9.588;2022-08-01T00:32:57;101195.88;;;18.22;96.78
8398;BME280;4236;54.504;9.588;2022-08-01T00:35:24;101195.78;;;18.17;96.59
8398;BME280;4236;54.504;9.588;2022-08-01T00:37:52;101192.13;;;18.11;96.93
8398;BME280;4236;54.504;9.588;2022-08-01T00:40:21;101201.06;;;18.12;95.71
8398;BME280;4236;54.504;9.588;2022-08-01T00:42:49;101197.06;;;18.14;94.99
8398;BME280;4236;54.504;9.588;2022-08-01T00:45:17;101194.25;;;18.09;94.25
8398;BME280;4236;54.504;9.588;2022-08-01T00:47:44;101193.66;;;18.07;91.88
8398;BME280;4236;54.504;9.588;2022-08-01T00:50:20;101195.66;;;18.00;90.85
8398;BME280;4236;54.504;9.588;2022-08-01T00:52:50;101200.34;;;17.93;90.71
8398;BME280;4236;54.504;9.588;2022-08-01T00:55:18;101205.16;;;17.91;89.11
8398;BME280;4236;54.504;9.588;2022-08-01T00:57:48;101196.13;;;17.86;87.46
8398;BME280;4236;54.504;9.588;2022-08-01T01:00:32;101204.22;;;17.86;87.55
8398;BME280;4236;54.504;9.588;2022-08-01T01:03:23;101199.97;;;17.78;86.83
8398;BME280;4236;54.504;9.588;2022-08-01T01:06:23;101200.56;;;17.80;86.82
8398;BME280;4236;54.504;9.588;2022-08-01T01:09:01;101206.41;;;17.77;87.27
8398;BME280;4236;54.504;9.588;2022-08-01T01:11:36;101213.94;;;17.75;86.97
8398;BME280;4236;54.504;9.588;2022-08-01T01:14:10;101207.50;;;17.76;85.63
8398;BME280;4236;54.504;9.588;2022-08-01T01:16:42;101201.03;;;17.77;84.42
8398;BME280;4236;54.504;9.588;2022-08-01T01:19:15;101210.19;;;17.76;86.30
8398;BME280;4236;54.504;9.588;2022-08-01T01:22:17;101201.38;;;17.81;85.08
8398;BME280;4236;54.504;9.588;2022-08-01T01:24:58;101201.75;;;17.84;85.39
8398;BME280;4236;54.504;9.588;2022-08-01T01:27:39;101197.63;;;17.82;87.22
8398;BME280;4236;54.504;9.588;2022-08-01T01:30:10;101195.16;;;17.80;88.56
8398;BME280;4236;54.504;9.588;2022-08-01T01:32:41;101199.41;;;17.76;89.18
8398;BME280;4236;54.504;9.588;2022-08-01T01:35:14;101185.91;;;17.76;89.75
8398;BME280;4236;54.504;9.588;2022-08-01T01:37:44;101190.84;;;17.79;89.66
8398;BME280;4236;54.504;9.588;2022-08-01T01:40:14;101191.66;;;17.80;90.24
8398;BME280;4236;54.504;9.588;2022-08-01T01:42:43;101202.09;;;17.76;92.60
8398;BME280;4236;54.504;9.588;2022-08-01T01:45:13;101201.28;;;17.76;92.17
8398;BME280;4236;54.504;9.588;2022-08-01T01:47:43;101209.56;;;17.74;91.53
8398;BME280;4236;54.504;9.588;2022-08-01T01:50:13;101209.56;;;17.74;90.87
8398;BME280;4236;54.504;9.588;2022-08-01T01:52:42;101212.06;;;17.76;91.51
8398;BME280;4236;54.504;9.588;2022-08-01T01:55:11;101221.66;;;17.72;91.29
8398;BME280;4236;54.504;9.588;2022-08-01T01:57:41;101222.72;;;17.71;91.36
8398;BME280;4236;54.504;9.588;2022-08-01T02:00:11;101221.06;;;17.69;90.37
8398;BME280;4236;54.504;9.588;2022-08-01T02:02:41;101219.56;;;17.74;89.47
8398;BME280;4236;54.504;9.588;2022-08-01T02:05:10;101221.91;;;17.70;90.22
8398;BME280;4236;54.504;9.588;2022-08-01T02:07:39;101225.53;;;17.64;89.69
8398;BME280;4236;54.504;9.588;2022-08-01T02:10:07;101227.19;;;17.65;89.24
8398;BME280;4236;54.504;9.588;2022-08-01T02:12:39;101223.41;;;17.66;87.77
8398;BME280;4236;54.504;9.588;2022-08-01T02:15:09;101228.22;;;17.64;88.18
8398;BME280;4236;54.504;9.588;2022-08-01T02:17:43;101221.78;;;17.65;87.16
8398;BME280;4236;54.504;9.588;2022-08-01T02:20:12;101219.56;;;17.62;87.52
8398;BME280;4236;54.504;9.588;2022-08-01T02:22:42;101215.78;;;17.63;85.68
8398;BME280;4236;54.504;9.588;2022-08-01T02:25:18;101217.66;;;17.62;85.43
8398;BME280;4236;54.504;9.588;2022-08-01T02:27:54;101215.78;;;17.63;86.42
8398;BME280;4236;54.504;9.588;2022-08-01T02:30:29;101222.47;;;17.60;85.54
8398;BME280;4236;54.504;9.588;2022-08-01T02:33:03;101218.47;;;17.63;85.48
8398;BME280;4236;54.504;9.588;2022-08-01T02:35:41;101221.06;;;17.58;85.90
8398;BME280;4236;54.504;9.588;2022-08-01T02:38:32;101220.47;;;17.56;84.93
8398;BME280;4236;54.504;9.588;2022-08-01T02:41:05;101213.44;;;17.55;83.43
8398;BME280;4236;54.504;9.588;2022-08-01T02:43:36;101217.78;;;17.56;82.79
8398;BME280;4236;54.504;9.588;2022-08-01T02:46:08;101208.22;;;17.53;83.58
8398;BME280;4236;54.504;9.588;2022-08-01T02:48:40;101211.97;;;17.52;84.01
8398;BME280;4236;54.504;9.588;2022-08-01T02:51:10;101219.47;;;17.50;84.00
8398;BME280;4236;54.504;9.588;2022-08-01T02:53:40;101225.69;;;17.51;83.50
8398;BME280;4236;54.504;9.588;2022-08-01T02:56:10;101224.06;;;17.50;84.64
8398;BME280;4236;54.504;9.588;2022-08-01T02:58:40;101234.38;;;17.53;84.64
8398;BME280;4236;54.504;9.588;2022-08-01T03:01:09;101227.56;;;17.50;86.04
8398;BME280;4236;54.504;9.588;2022-08-01T03:03:39;101230.88;;;17.52;86.14
8398;BME280;4236;54.504;9.588;2022-08-01T03:06:07;101231.31;;;17.49;86.60
8398;BME280;4236;54.504;9.588;2022-08-01T03:08:35;101234.59;;;17.51;86.18
8398;BME280;4236;54.504;9.588;2022-08-01T03:11:05;101231.25;;;17.56;84.81
8398;BME280;4236;54.504;9.588;2022-08-01T03:13:34;101226.91;;;17.55;86.37
8398;BME280;4236;54.504;9.588;2022-08-01T03:16:04;101228.00;;;17.47;87.87
8398;BME280;4236;54.504;9.588;2022-08-01T03:18:33;101232.25;;;17.43;89.19
8398;BME280;4236;54.504;9.588;2022-08-01T03:21:06;101245.09;;;17.41;89.64
8398;BME280;4236;54.504;9.588;2022-08-01T03:23:37;101247.97;;;17.46;87.75
8398;BME280;4236;54.504;9.588;2022-08-01T03:26:06;101239.25;;;17.44;89.62
8398;BME280;4236;54.504;9.588;2022-08-01T03:28:35;101241.94;;;17.44;89.63
8398;BME280;4236;54.504;9.588;2022-08-01T03:31:03;101246.31;;;17.45;90.44
8398;BME280;4236;54.504;9.588;2022-08-01T03:33:31;101254.97;;;17.47;90.93
8398;BME280;4236;54.504;9.588;2022-08-01T03:36:00;101253.94;;;17.48;90.70
8398;BME280;4236;54.504;9.588;2022-08-01T03:38:32;101253.44;;;17.40;93.64
8398;BME280;4236;54.504;9.588;2022-08-01T03:41:06;101257.53;;;17.42;92.11
8398;BME280;4236;54.504;9.588;2022-08-01T03:43:38;101255.22;;;17.46;89.85
8398;BME280;4236;54.504;9.588;2022-08-01T03:46:11;101263.31;;;17.46;90.82
8398;BME280;4236;54.504;9.588;2022-08-01T03:48:43;101253.19;;;17.41;91.38
8398;BME280;4236;54.504;9.588;2022-08-01T03:51:15;101265.19;;;17.45;90.08
8398;BME280;4236;54.504;9.588;2022-08-01T03:53:48;101261.06;;;17.43;92.19
8398;BME280;4236;54.504;9.588;2022-08-01T03:56:18;101262.47;;;17.45;91.33
8398;BME280;4236;54.504;9.588;2022-08-01T03:58:47;101267.41;;;17.48;92.23
8398;BME280;4236;54.504;9.588;2022-08-01T04:01:17;101263.91;;;17.48;91.46
8398;BME280;4236;54.504;9.588;2022-08-01T04:03:46;101269.06;;;17.49;91.93
8398;BME280;4236;54.504;9.588;2022-08-01T04:06:14;101271.41;;;17.46;92.92
8398;BME280;4236;54.504;9.588;2022-08-01T04:08:42;101275.75;;;17.47;91.77
8398;BME280;4236;54.504;9.588;2022-08-01T04:11:23;101273.72;;;17.42;92.91
8398;BME280;4236;54.504;9.588;2022-08-01T04:13:52;101288.03;;;17.43;91.94
8398;BME280;4236;54.504;9.588;2022-08-01T04:16:21;101282.50;;;17.38;90.86
8398;BME280;4236;54.504;9.588;2022-08-01T04:18:49;101286.69;;;17.34;89.74
8398;BME280;4236;54.504;9.588;2022-08-01T04:21:18;101290.22;;;17.34;90.80
8398;BME280;4236;54.504;9.588;2022-08-01T04:23:49;101292.47;;;17.37;89.69
8398;BME280;4236;54.504;9.588;2022-08-01T04:26:19;101288.25;;;17.41;91.01
8398;BME280;4236;54.504;9.588;2022-08-01T04:28:52;101295.16;;;17.37;93.68
8398;BME280;4236;54.504;9.588;2022-08-01T04:31:22;101301.38;;;17.38;95.10
8398;BME280;4236;54.504;9.588;2022-08-01T04:33:53;101304.88;;;17.38;96.48
8398;BME280;4236;54.504;9.588;2022-08-01T04:36:23;101296.00;;;17.38;98.84
8398;BME280;4236;54.504;9.588;2022-08-01T04:38:55;101307.81;;;17.37;100.00
8398;BME280;4236;54.504;9.588;2022-08-01T04:41:25;101312.50;;;17.41;100.00
8398;BME280;4236;54.504;9.588;2022-08-01T04:43:54;101324.28;;;17.47;100.00
8398;BME280;4236;54.504;9.588;2022-08-01T04:46:22;101324.03;;;17.48;100.00
8398;BME280;4236;54.504;9.588;2022-08-01T04:48:51;101327.66;;;17.42;100.00
8398;BME280;4236;54.504;9.588;2022-08-01T04:51:20;101333.88;;;17.43;100.00
8398;BME280;4236;54.504;9.588;2022-08-01T04:53:51;101335.81;;;17.36;100.00
8398;BME280;4236;54.504;9.588;2022-08-01T04:56:20;101334.03;;;17.30;100.00
8398;BME280;4236;54.504;9.588;2022-08-01T04:58:49;101335.69;;;17.31;100.00
8398;BME280;4236;54.504;9.588;2022-08-01T05:01:50;101341.31;;;17.29;100.00
8398;BME280;4236;54.504;9.588;2022-08-01T05:04:21;101345.63;;;17.30;100.00
8398;BME280;4236;54.504;9.588;2022-08-01T05:06:51;101350.13;;;17.18;100.00
8398;BME280;4236;54.504;9.588;2022-08-01T05:09:20;101344.91;;;17.05;100.00
8398;BME280;4236;54.504;9.588;2022-08-01T05:11:54;101343.09;;;16.99;100.00
8398;BME280;4236;54.504;9.588;2022-08-01T05:14:24;101348.50;;;16.99;100.00
8398;BME280;4236;54.504;9.588;2022-08-01T05:16:54;101353.06;;;16.98;100.00
8398;BME280;4236;54.504;9.588;2022-08-01T05:19:22;101353.13;;;16.92;100.00
8398;BME280;4236;54.504;9.588;2022-08-01T05:21:50;101363.22;;;16.78;100.00
8398;BME280;4236;54.504;9.588;2022-08-01T05:24:25;101363.22;;;16.78;100.00
8398;BME280;4236;54.504;9.588;2022-08-01T05:26:57;101362.75;;;16.63;100.00
8398;BME280;4236;54.504;9.588;2022-08-01T05:29:28;101358.97;;;16.39;100.00
8398;BME280;4236;54.504;9.588;2022-08-01T05:31:57;101370.66;;;16.27;100.00
8398;BME280;4236;54.504;9.588;2022-08-01T05:34:26;101368.69;;;16.16;98.44
8398;BME280;4236;54.504;9.588;2022-08-01T05:36:54;101381.63;;;16.00;100.00
8398;BME280;4236;54.504;9.588;2022-08-01T05:39:23;101389.50;;;15.95;99.74
8398;BME280;4236;54.504;9.588;2022-08-01T05:41:51;101389.72;;;15.94;97.43
8398;BME280;4236;54.504;9.588;2022-08-01T05:44:18;101386.03;;;15.88;100.00
8398;BME280;4236;54.504;9.588;2022-08-01T05:46:46;101408.41;;;15.82;100.00
8398;BME280;4236;54.504;9.588;2022-08-01T05:49:15;101410.09;;;15.77;100.00
8398;BME280;4236;54.504;9.588;2022-08-01T05:51:43;101416.50;;;15.76;100.00
8398;BME280;4236;54.504;9.588;2022-08-01T05:54:10;101422.28;;;15.79;100.00
8398;BME280;4236;54.504;9.588;2022-08-01T05:56:38;101424.53;;;15.82;100.00
8398;BME280;4236;54.504;9.588;2022-08-01T05:59:06;101425.88;;;15.98;100.00
8398;BME280;4236;54.504;9.588;2022-08-01T06:01:33;101428.97;;;16.01;100.00
8398;BME280;4236;54.504;9.588;2022-08-01T06:04:01;101435.66;;;16.30;100.00
8398;BME280;4236;54.504;9.588;2022-08-01T06:06:30;101442.31;;;16.59;100.00
8398;BME280;4236;54.504;9.588;2022-08-01T06:08:58;101433.31;;;16.72;100.00
8398;BME280;4236;54.504;9.588;2022-08-01T06:11:25;101432.66;;;16.94;100.00
8398;BME280;4236;54.504;9.588;2022-08-01T06:13:53;101440.97;;;17.36;97.44
8398;BME280;4236;54.504;9.588;2022-08-01T06:16:21;101439.25;;;18.07;89.84
8398;BME280;4236;54.504;9.588;2022-08-01T06:18:48;101447.09;;;18.27;85.27
8398;BME280;4236;54.504;9.588;2022-08-01T06:21:21;101436.31;;;18.80;81.33
8398;BME280;4236;54.504;9.588;2022-08-01T06:23:50;101456.31;;;19.25;77.54
8398;BME280;4236;54.504;9.588;2022-08-01T06:26:19;101446.16;;;19.67;75.83
8398;BME280;4236;54.504;9.588;2022-08-01T06:28:46;101457.09;;;20.01;73.34
8398;BME280;4236;54.504;9.588;2022-08-01T06:31:14;101450.25;;;20.10;71.35
8398;BME280;4236;54.504;9.588;2022-08-01T06:33:42;101458.56;;;20.65;69.61
8398;BME280;4236;54.504;9.588;2022-08-01T06:36:09;101443.09;;;21.15;65.13
8398;BME280;4236;54.504;9.588;2022-08-01T06:38:37;101448.22;;;21.12;64.41
8398;BME280;4236;54.504;9.588;2022-08-01T06:41:06;101454.69;;;20.94;65.04
8398;BME280;4236;54.504;9.588;2022-08-01T06:43:34;101470.09;;;21.43;61.70
8398;BME280;4236;54.504;9.588;2022-08-01T06:46:01;101462.59;;;21.72;61.02
8398;BME280;4236;54.504;9.588;2022-08-01T06:48:29;101466.16;;;22.43;59.62
8398;BME280;4236;54.504;9.588;2022-08-01T06:50:57;101475.63;;;22.40;59.13
8398;BME280;4236;54.504;9.588;2022-08-01T06:53:35;101473.00;;;22.24;57.38
8398;BME280;4236;54.504;9.588;2022-08-01T06:56:06;101480.25;;;20.98;61.85
8398;BME280;4236;54.504;9.588;2022-08-01T06:58:35;101478.28;;;20.04;64.20
8398;BME280;4236;54.504;9.588;2022-08-01T07:01:03;101491.25;;;19.50;67.45
8398;BME280;4236;54.504;9.588;2022-08-01T07:03:32;101476.34;;;20.16;68.83
8398;BME280;4236;54.504;9.588;2022-08-01T07:06:19;101487.31;;;20.99;62.59
8398;BME280;4236;54.504;9.588;2022-08-01T07:08:47;101486.44;;;21.10;61.78
8398;BME280;4236;54.504;9.588;2022-08-01T07:11:16;101488.63;;;21.68;60.33
8398;BME280;4236;54.504;9.588;2022-08-01T07:13:43;101490.31;;;21.52;58.78
8398;BME280;4236;54.504;9.588;2022-08-01T07:16:12;101489.97;;;21.11;60.26
8398;BME280;4236;54.504;9.588;2022-08-01T07:18:39;101492.41;;;21.67;56.17
8398;BME280;4236;54.504;9.588;2022-08-01T07:21:08;101499.78;;;21.88;57.54
8398;BME280;4236;54.504;9.588;2022-08-01T07:23:55;101491.34;;;22.12;57.97
8398;BME280;4236;54.504;9.588;2022-08-01T07:26:26;101499.16;;;22.56;58.30
8398;BME280;4236;54.504;9.588;2022-08-01T07:28:54;101497.44;;;22.45;57.42
8398;BME280;4236;54.504;9.588;2022-08-01T07:31:21;101499.34;;;22.50;57.32
8398;BME280;4236;54.504;9.588;2022-08-01T07:33:53;101503.66;;;21.37;56.30
8398;BME280;4236;54.504;9.588;2022-08-01T07:36:21;101504.00;;;21.24;59.18
8398;BME280;4236;54.504;9.588;2022-08-01T07:38:48;101498.66;;;20.96;58.56
8398;BME280;4236;54.504;9.588;2022-08-01T07:41:16;101514.28;;;21.22;57.83
8398;BME280;4236;54.504;9.588;2022-08-01T07:43:45;101510.31;;;21.30;57.11
8398;BME280;4236;54.504;9.588;2022-08-01T07:46:24;101512.78;;;21.70;55.33
8398;BME280;4236;54.504;9.588;2022-08-01T07:48:51;101511.59;;;21.61;57.29
8398;BME280;4236;54.504;9.588;2022-08-01T07:51:19;101514.63;;;21.64;57.24
8398;BME280;4236;54.504;9.588;2022-08-01T07:53:47;101522.00;;;21.69;56.99
8398;BME280;4236;54.504;9.588;2022-08-01T07:56:14;101520.44;;;21.01;60.20
8398;BME280;4236;54.504;9.588;2022-08-01T07:58:42;101525.75;;;20.63;60.06
8398;BME280;4236;54.504;9.588;2022-08-01T08:01:11;101541.31;;;19.76;59.10
8398;BME280;4236;54.504;9.588;2022-08-01T08:03:39;101545.66;;;19.54;62.70
8398;BME280;4236;54.504;9.588;2022-08-01T08:06:07;101535.66;;;19.31;61.46
8398;BME280;4236;54.504;9.588;2022-08-01T08:08:35;101544.16;;;19.46;63.54
8398;BME280;4236;54.504;9.588;2022-08-01T08:11:02;101547.34;;;19.55;63.82
8398;BME280;4236;54.504;9.588;2022-08-01T08:13:30;101549.53;;;19.34;63.23
8398;BME280;4236;54.504;9.588;2022-08-01T08:15:57;101543.28;;;19.11;63.00
8398;BME280;4236;54.504;9.588;2022-08-01T08:18:27;101547.91;;;19.45;64.18
8398;BME280;4236;54.504;9.588;2022-08-01T08:20:54;101541.81;;;19.50;62.55
8398;BME280;4236;54.504;9.588;2022-08-01T08:23:22;101539.31;;;19.60;61.93
8398;BME280;4236;54.504;9.588;2022-08-01T08:26:09;101541.06;;;19.31;59.95
8398;BME280;4236;54.504;9.588;2022-08-01T08:28:37;101552.34;;;19.16;60.12
8398;BME280;4236;54.504;9.588;2022-08-01T08:31:05;101555.56;;;19.60;58.25
8398;BME280;4236;54.504;9.588;2022-08-01T08:33:55;101554.03;;;19.52;60.42
8398;BME280;4236;54.504;9.588;2022-08-01T08:36:22;101564.50;;;19.72;59.59
8398;BME280;4236;54.504;9.588;2022-08-01T08:38:57;101565.88;;;19.98;58.41
8398;BME280;4236;54.504;9.588;2022-08-01T08:41:26;101565.06;;;19.85;57.69
8398;BME280;4236;54.504;9.588;2022-08-01T08:44:04;101571.13;;;20.04;58.42
8398;BME280;4236;54.504;9.588;2022-08-01T08:46:40;101571.47;;;20.19;59.08
8398;BME280;4236;54.504;9.588;2022-08-01T08:49:10;101572.69;;;20.00;57.17
8398;BME280;4236;54.504;9.588;2022-08-01T08:51:39;101568.47;;;19.81;58.50
8398;BME280;4236;54.504;9.588;2022-08-01T08:54:08;101574.97;;;19.68;59.94
8398;BME280;4236;54.504;9.588;2022-08-01T08:56:37;101578.97;;;19.54;60.01
8398;BME280;4236;54.504;9.588;2022-08-01T08:59:05;101565.88;;;19.74;60.76
8398;BME280;4236;54.504;9.588;2022-08-01T09:01:33;101575.22;;;19.44;59.32
8398;BME280;4236;54.504;9.588;2022-08-01T09:04:02;101575.53;;;19.82;60.88
8398;BME280;4236;54.504;9.588;2022-08-01T09:06:32;101580.69;;;19.95;59.73
8398;BME280;4236;54.504;9.588;2022-08-01T09:09:00;101568.91;;;20.01;60.18
8398;BME280;4236;54.504;9.588;2022-08-01T09:11:28;101576.59;;;19.81;61.62
8398;BME280;4236;54.504;9.588;2022-08-01T09:14:04;101569.69;;;19.73;60.83
8398;BME280;4236;54.504;9.588;2022-08-01T09:16:34;101576.13;;;19.72;61.82
8398;BME280;4236;54.504;9.588;2022-08-01T09:19:19;101579.41;;;19.74;59.57
8398;BME280;4236;54.504;9.588;2022-08-01T09:22:09;101580.84;;;19.88;60.19
8398;BME280;4236;54.504;9.588;2022-08-01T09:24:38;101579.88;;;20.06;58.95
8398;BME280;4236;54.504;9.588;2022-08-01T09:27:17;101580.22;;;19.86;57.98
8398;BME280;4236;54.504;9.588;2022-08-01T09:29:47;101583.53;;;19.65;64.09
8398;BME280;4236;54.504;9.588;2022-08-01T09:32:28;101595.91;;;19.50;62.98
8398;BME280;4236;54.504;9.588;2022-08-01T09:35:22;101596.59;;;19.57;61.32
8398;BME280;4236;54.504;9.588;2022-08-01T09:40:52;101594.38;;;19.77;56.94
8398;BME280;4236;54.504;9.588;2022-08-01T09:43:23;101603.06;;;20.02;59.97
8398;BME280;4236;54.504;9.588;2022-08-01T09:45:52;101605.69;;;19.85;58.68
8398;BME280;4236;54.504;9.588;2022-08-01T09:48:23;101600.00;;;19.99;57.03
8398;BME280;4236;54.504;9.588;2022-08-01T09:50:56;101595.66;;;19.63;54.78
8398;BME280;4236;54.504;9.588;2022-08-01T09:53:43;101604.41;;;19.65;57.95
8398;BME280;4236;54.504;9.588;2022-08-01T09:56:20;101597.19;;;19.82;55.48
8398;BME280;4236;54.504;9.588;2022-08-01T09:58:50;101601.56;;;19.83;55.49
8398;BME280;4236;54.504;9.588;2022-08-01T10:01:25;101607.84;;;20.23;56.44
8398;BME280;4236;54.504;9.588;2022-08-01T10:04:05;101606.19;;;20.22;54.66
8398;BME280;4236;54.504;9.588;2022-08-01T10:06:36;101625.75;;;20.24;55.63
8398;BME280;4236;54.504;9.588;2022-08-01T10:09:04;101610.81;;;20.10;55.79
8398;BME280;4236;54.504;9.588;2022-08-01T10:11:33;101604.69;;;20.15;57.22
8398;BME280;4236;54.504;9.588;2022-08-01T10:14:05;101612.81;;;20.15;57.16
8398;BME280;4236;54.504;9.588;2022-08-01T10:16:34;101613.50;;;20.10;58.84
8398;BME280;4236;54.504;9.588;2022-08-01T10:19:05;101614.78;;;20.19;56.35
8398;BME280;4236;54.504;9.588;2022-08-01T10:21:40;101613.16;;;20.30;54.08
8398;BME280;4236;54.504;9.588;2022-08-01T10:24:26;101605.28;;;20.85;53.74
8398;BME280;4236;54.504;9.588;2022-08-01T10:26:57;101607.50;;;20.88;53.93
8398;BME280;4236;54.504;9.588;2022-08-01T10:29:37;101607.84;;;20.35;52.13
8398;BME280;4236;54.504;9.588;2022-08-01T10:32:13;101625.28;;;20.04;52.24
8398;BME280;4236;54.504;9.588;2022-08-01T10:34:41;101619.53;;;20.12;51.73
8398;BME280;4236;54.504;9.588;2022-08-01T10:37:12;101604.94;;;20.53;53.68
8398;BME280;4236;54.504;9.588;2022-08-01T10:39:41;101626.81;;;20.35;53.10
8398;BME280;4236;54.504;9.588;2022-08-01T10:42:11;101627.19;;;20.15;52.87
8398;BME280;4236;54.504;9.588;2022-08-01T10:44:41;101629.41;;;20.30;53.84
8398;BME280;4236;54.504;9.588;2022-08-01T10:47:17;101627.75;;;20.69;50.30
8398;BME280;4236;54.504;9.588;2022-08-01T10:49:58;101623.47;;;20.84;51.03
8398;BME280;4236;54.504;9.588;2022-08-01T10:52:30;101624.97;;;20.64;49.84
8398;BME280;4236;54.504;9.588;2022-08-01T10:55:06;101622.88;;;20.54;51.49
8398;BME280;4236;54.504;9.588;2022-08-01T10:57:44;101627.44;;;20.82;50.84
8398;BME280;4236;54.504;9.588;2022-08-01T11:00:19;101624.13;;;21.36;51.50
8398;BME280;4236;54.504;9.588;2022-08-01T11:02:57;101617.78;;;21.47;49.98
8398;BME280;4236;54.504;9.588;2022-08-01T11:05:28;101625.09;;;21.14;50.41
8398;BME280;4236;54.504;9.588;2022-08-01T11:08:01;101620.16;;;20.82;49.40
8398;BME280;4236;54.504;9.588;2022-08-01T11:10:34;101631.19;;;20.64;52.79
8398;BME280;4236;54.504;9.588;2022-08-01T11:13:06;101639.25;;;20.76;51.75
8398;BME280;4236;54.504;9.588;2022-08-01T11:15:35;101630.22;;;20.70;51.49
8398;BME280;4236;54.504;9.588;2022-08-01T11:18:39;101620.09;;;20.94;50.25
8398;BME280;4236;54.504;9.588;2022-08-01T11:21:17;101631.19;;;20.92;52.10
8398;BME280;4236;54.504;9.588;2022-08-01T11:24:05;101622.91;;;20.99;51.13
8398;BME280;4236;54.504;9.588;2022-08-01T11:26:35;101631.28;;;20.97;53.14
8398;BME280;4236;54.504;9.588;2022-08-01T11:29:17;101626.88;;;20.80;51.24
8398;BME280;4236;54.504;9.588;2022-08-01T11:31:48;101622.38;;;20.85;50.28
8398;BME280;4236;54.504;9.588;2022-08-01T11:34:16;101627.16;;;20.95;51.47
8398;BME280;4236;54.504;9.588;2022-08-01T11:36:45;101630.34;;;21.53;51.47
8398;BME280;4236;54.504;9.588;2022-08-01T11:39:28;101628.38;;;21.82;51.66
8398;BME280;4236;54.504;9.588;2022-08-01T11:42:17;101635.06;;;21.91;50.09
8398;BME280;4236;54.504;9.588;2022-08-01T11:44:50;101637.75;;;21.75;52.35
8398;BME280;4236;54.504;9.588;2022-08-01T11:47:18;101638.09;;;22.17;49.02
8398;BME280;4236;54.504;9.588;2022-08-01T11:50:06;101636.47;;;22.59;49.11
8398;BME280;4236;54.504;9.588;2022-08-01T11:52:57;101637.63;;;22.41;49.93
8398;BME280;4236;54.504;9.588;2022-08-01T11:55:26;101637.84;;;21.96;48.44
8398;BME280;4236;54.504;9.588;2022-08-01T11:57:59;101648.94;;;21.78;48.47
8398;BME280;4236;54.504;9.588;2022-08-01T12:00:30;101641.53;;;21.74;50.38
8398;BME280;4236;54.504;9.588;2022-08-01T12:02:59;101636.38;;;21.89;49.24
8398;BME280;4236;54.504;9.588;2022-08-01T12:05:31;101640.97;;;21.88;48.57
8398;BME280;4236;54.504;9.588;2022-08-01T12:08:00;101646.25;;;21.62;49.58
8398;BME280;4236;54.504;9.588;2022-08-01T12:10:33;101649.09;;;21.72;51.04
8398;BME280;4236;54.504;9.588;2022-08-01T12:13:15;101642.03;;;22.04;51.07
8398;BME280;4236;54.504;9.588;2022-08-01T12:15:45;101644.03;;;22.14;48.31
8398;BME280;4236;54.504;9.588;2022-08-01T12:18:13;101636.53;;;22.21;49.31
8398;BME280;4236;54.504;9.588;2022-08-01T12:20:43;101650.59;;;21.96;49.38
8398;BME280;4236;54.504;9.588;2022-08-01T12:23:23;101644.94;;;22.41;45.82
8398;BME280;4236;54.504;9.588;2022-08-01T12:25:51;101646.97;;;22.07;48.57
8398;BME280;4236;54.504;9.588;2022-08-01T12:28:19;101643.44;;;21.73;48.88
8398;BME280;4236;54.504;9.588;2022-08-01T12:30:48;101629.59;;;21.75;52.11
8398;BME280;4236;54.504;9.588;2022-08-01T12:33:18;101644.84;;;21.26;52.52
8398;BME280;4236;54.504;9.588;2022-08-01T12:35:46;101652.81;;;21.49;52.69
8398;BME280;4236;54.504;9.588;2022-08-01T12:38:15;101644.16;;;21.69;52.35
8398;BME280;4236;54.504;9.588;2022-08-01T12:40:45;101650.59;;;21.63;53.50
8398;BME280;4236;54.504;9.588;2022-08-01T12:43:21;101651.19;;;21.65;51.91
8398;BME280;4236;54.504;9.588;2022-08-01T12:45:57;101655.06;;;21.35;49.77
8398;BME280;4236;54.504;9.588;2022-08-01T12:48:27;101654.03;;;21.25;49.58
8398;BME280;4236;54.504;9.588;2022-08-01T12:50:56;101649.03;;;21.33;50.67
8398;BME280;4236;54.504;9.588;2022-08-01T12:53:26;101651.41;;;21.13;47.88
8398;BME280;4236;54.504;9.588;2022-08-01T12:56:07;101651.09;;;20.98;49.30
8398;BME280;4236;54.504;9.588;2022-08-01T12:58:36;101651.06;;;21.10;49.81
8398;BME280;4236;54.504;9.588;2022-08-01T13:01:06;101651.09;;;21.43;51.35
8398;BME280;4236;54.504;9.588;2022-08-01T13:03:35;101656.53;;;21.43;50.22
8398;BME280;4236;54.504;9.588;2022-08-01T13:06:10;101663.59;;;21.77;50.71
8398;BME280;4236;54.504;9.588;2022-08-01T13:08:38;101664.53;;;22.21;48.67
8398;BME280;4236;54.504;9.588;2022-08-01T13:11:08;101673.19;;;22.18;48.17
8398;BME280;4236;54.504;9.588;2022-08-01T13:13:38;101662.59;;;21.67;52.37
8398;BME280;4236;54.504;9.588;2022-08-01T13:16:09;101656.59;;;21.65;48.89
8398;BME280;4236;54.504;9.588;2022-08-01T13:18:56;101658.13;;;22.11;51.05
8398;BME280;4236;54.504;9.588;2022-08-01T13:21:26;101658.97;;;22.54;49.61
8398;BME280;4236;54.504;9.588;2022-08-01T13:24:02;101649.81;;;22.60;46.17
8398;BME280;4236;54.504;9.588;2022-08-01T13:26:43;101658.16;;;21.94;48.69
8398;BME280;4236;54.504;9.588;2022-08-01T13:29:12;101657.56;;;21.42;49.38
8398;BME280;4236;54.504;9.588;2022-08-01T13:31:42;101667.44;;;21.03;49.23
8398;BME280;4236;54.504;9.588;2022-08-01T13:34:10;101667.75;;;20.90;51.55
8398;BME280;4236;54.504;9.588;2022-08-01T13:36:39;101669.88;;;20.88;51.63